Angelica, Wisconsin
Current Conditions -  °F | °C
As of 3:53 AM on Tuesday 21 Oct 2014 (Local Time) from KGRB Reporting Station
Overcast Overcast  
Wind Chill:   Ceiling: 2400
Heat Index:   Visibility: 10mi
Dew Point:   Wind: 13mph
Humidity: 79%   Direction: 360°N
Pressure: 30.09"   Gusts: NA
Location:  44.6594°N, 88.2945°W
Report Text: KGRB 210853Z AUTO 36011KT 10SM OVC024 07/03 A3009 RMK AO2 SLP193 T00670033 53015
Loading
Personal Weather Stations






























Interactive Weather Map
Tropical Storm Tracking
New forecast layout! Learn more

10-Day Weather Forecast

Advertisements
Track Severe Weather on mobile